Time;durP1;ratioP1;P1;durP2;ratioP2;P2;SDS_P1;SDS_P2;PMS_P1;PMS_P2;Temp;Humidity;BMP_temperature;BMP_pressure;BME280_temperature;BME280_humidity;BME280_pressure;Samples;Min_cycle;Max_cycle;Signal;HPM_P1;HPM_P2
2024/02/14 00:00:13;;;;;;;1.75;1.13;;;8.00;99.90;;;;;;5066107;28;20521;-68
2024/02/14 00:02:51;;;;;;;2.20;1.40;;;7.90;99.90;;;;;;5065873;28;21365;-69
2024/02/14 00:05:17;;;;;;;;;;;8.00;99.90;;;;;;5068121;28;20032;-71
2024/02/14 00:07:43;;;;;;;3.42;1.33;;;8.00;99.90;;;;;;5066763;28;19915;-67
2024/02/14 00:10:09;;;;;;;5.35;1.40;;;8.00;99.90;;;;;;5064872;28;20647;-69
2024/02/14 00:12:35;;;;;;;8.00;1.10;;;8.00;99.90;;;;;;5066446;28;20025;-68
2024/02/14 00:15:06;;;;;;;1.90;1.10;;;8.00;99.90;;;;;;5066611;28;20115;-75
2024/02/14 00:17:31;;;;;;;4.28;1.00;;;8.00;99.90;;;;;;5067704;28;20025;-68
2024/02/14 00:19:57;;;;;;;2.55;1.30;;;8.00;99.90;;;;;;5062689;28;20024;-67
2024/02/14 00:22:24;;;;;;;3.63;1.35;;;8.00;99.90;;;;;;5067998;28;20032;-67
2024/02/14 00:24:49;;;;;;;3.13;1.30;;;8.00;99.90;;;;;;5065611;28;20043;-68
2024/02/14 00:27:15;;;;;;;2.55;1.33;;;8.00;99.90;;;;;;5065699;28;20493;-67
2024/02/14 00:29:43;;;;;;;5.63;1.13;;;8.00;99.90;;;;;;5065675;28;20025;-68
2024/02/14 00:32:09;;;;;;;2.92;1.38;;;8.00;99.90;;;;;;5064995;28;20123;-68
2024/02/14 00:34:35;;;;;;;2.80;1.08;;;8.00;99.90;;;;;;5066285;28;20115;-70
2024/02/14 00:37:00;;;;;;;3.00;1.10;;;8.00;99.90;;;;;;5064839;28;20036;-69
2024/02/14 00:39:26;;;;;;;5.80;1.13;;;8.00;99.90;;;;;;5065002;28;20067;-69
2024/02/14 00:41:52;;;;;;;4.18;1.63;;;8.00;99.90;;;;;;5061987;28;20032;-69
2024/02/14 00:44:19;;;;;;;2.42;1.00;;;8.00;99.90;;;;;;5059240;28;20031;-71
2024/02/14 00:46:45;;;;;;;3.17;1.30;;;8.00;99.90;;;;;;5063573;28;20111;-69
2024/02/14 00:49:11;;;;;;;4.88;1.75;;;8.10;99.90;;;;;;5061259;28;20096;-68
2024/02/14 00:51:40;;;;;;;2.40;1.10;;;8.00;99.90;;;;;;5061725;28;20107;-67
2024/02/14 00:54:06;;;;;;;2.25;1.15;;;8.00;99.90;;;;;;5066473;28;20439;-67
2024/02/14 00:56:32;;;;;;;7.30;1.30;;;8.10;99.90;;;;;;5067717;28;20115;-67
2024/02/14 00:58:57;;;;;;;3.58;1.30;;;8.00;99.90;;;;;;5066501;28;20558;-70
2024/02/14 01:01:23;;;;;;;3.33;1.35;;;8.00;99.90;;;;;;5067425;28;20047;-68
2024/02/14 01:03:48;;;;;;;2.90;1.08;;;8.00;99.90;;;;;;5064093;28;20445;-71
2024/02/14 01:06:15;;;;;;;3.20;1.27;;;8.00;99.90;;;;;;5067920;28;20028;-67
2024/02/14 01:08:41;;;;;;;6.20;1.63;;;8.00;99.90;;;;;;5059795;28;20111;-69
2024/02/14 01:11:07;;;;;;;2.05;1.15;;;8.00;99.90;;;;;;5064221;28;20066;-68
2024/02/14 01:13:33;;;;;;;4.20;1.70;;;8.00;99.90;;;;;;5066761;28;20052;-69
2024/02/14 01:15:59;;;;;;;2.33;1.42;;;8.00;99.90;;;;;;5062795;28;20043;-69
2024/02/14 01:18:24;;;;;;;2.42;1.23;;;8.00;99.90;;;;;;5061181;28;20455;-69
2024/02/14 01:20:50;;;;;;;3.60;1.33;;;8.10;99.90;;;;;;5065835;28;20032;-72
2024/02/14 01:23:16;;;;;;;2.85;1.52;;;8.00;99.90;;;;;;5060071;28;20702;-69
2024/02/14 01:25:42;;;;;;;3.45;1.60;;;8.00;99.90;;;;;;5062983;28;20073;-67
2024/02/14 01:28:08;;;;;;;2.72;1.23;;;8.00;99.90;;;;;;5062295;28;20555;-68
2024/02/14 01:30:35;;;;;;;11.30;1.30;;;8.00;99.90;;;;;;5059469;28;20111;-69
2024/02/14 01:33:03;;;;;;;1.98;1.17;;;8.00;99.90;;;;;;5062848;28;20025;-73
2024/02/14 01:35:29;;;;;;;3.90;1.42;;;8.00;99.90;;;;;;5056690;28;20032;-69
2024/02/14 01:37:55;;;;;;;5.22;1.40;;;8.00;99.90;;;;;;5061221;28;20021;-70
2024/02/14 01:40:21;;;;;;;4.15;1.15;;;8.00;99.90;;;;;;5061367;28;20036;-68
2024/02/14 01:42:47;;;;;;;7.82;1.30;;;8.00;99.90;;;;;;5064125;28;20032;-67
2024/02/14 01:45:13;;;;;;;4.63;1.88;;;8.00;99.90;;;;;;5064617;28;20028;-69
2024/02/14 01:47:41;;;;;;;4.65;1.58;;;8.00;99.90;;;;;;5062488;28;20396;-69
2024/02/14 01:50:11;;;;;;;4.45;1.27;;;8.00;99.90;;;;;;5065148;28;20048;-71
2024/02/14 01:52:38;;;;;;;3.60;1.60;;;8.00;99.90;;;;;;5063527;28;20025;-76
2024/02/14 01:55:05;;;;;;;5.57;1.23;;;8.00;99.90;;;;;;5059382;28;20050;-68
2024/02/14 01:57:31;;;;;;;4.90;1.50;;;8.10;99.90;;;;;;5056020;28;20032;-68
2024/02/14 01:59:59;;;;;;;7.70;1.48;;;8.00;99.90;;;;;;5063592;28;20064;-70
2024/02/14 02:02:26;;;;;;;3.15;1.58;;;8.00;99.90;;;;;;5059169;28;20088;-69
2024/02/14 02:04:52;;;;;;;8.70;1.50;;;8.10;99.90;;;;;;5064338;28;20036;-67
2024/02/14 02:07:19;;;;;;;5.63;1.30;;;8.10;99.90;;;;;;5059152;28;20497;-72
2024/02/14 02:09:48;;;;;;;2.43;1.43;;;8.10;99.90;;;;;;5060340;28;20024;-69
2024/02/14 02:12:13;;;;;;;8.57;1.83;;;8.10;99.90;;;;;;5062021;28;20089;-69
2024/02/14 02:14:40;;;;;;;2.00;1.38;;;8.10;99.90;;;;;;5062828;28;20028;-68
2024/02/14 02:17:08;;;;;;;5.47;1.80;;;8.10;99.90;;;;;;5063306;28;20108;-68
2024/02/14 02:19:34;;;;;;;6.35;1.20;;;8.10;99.90;;;;;;5066390;28;20039;-71
2024/02/14 02:22:00;;;;;;;4.13;1.40;;;8.10;99.90;;;;;;5063919;28;20025;-68
2024/02/14 02:24:26;;;;;;;5.07;1.85;;;8.20;99.90;;;;;;5062184;28;20039;-73
2024/02/14 02:26:51;;;;;;;3.47;1.80;;;8.20;99.90;;;;;;5060412;28;20021;-68
2024/02/14 02:29:19;;;;;;;4.32;1.52;;;8.20;99.90;;;;;;5062167;28;20107;-68
2024/02/14 02:31:46;;;;;;;2.65;1.50;;;8.10;99.90;;;;;;5064048;28;20028;-69
2024/02/14 02:34:12;;;;;;;5.68;1.80;;;8.10;99.90;;;;;;5061593;28;20032;-69
2024/02/14 02:36:39;;;;;;;6.45;2.17;;;8.20;99.90;;;;;;5063147;28;20370;-72
2024/02/14 02:39:07;;;;;;;2.47;1.67;;;8.20;99.90;;;;;;5065751;28;20029;-67
2024/02/14 02:41:33;;;;;;;9.68;1.65;;;8.10;99.90;;;;;;5059647;28;20086;-67
2024/02/14 02:43:59;;;;;;;2.38;1.55;;;8.10;99.90;;;;;;5064937;28;20020;-68
2024/02/14 02:46:25;;;;;;;8.70;2.08;;;8.10;99.90;;;;;;5062333;28;20073;-67
2024/02/14 02:48:54;;;;;;;6.82;1.92;;;8.00;99.90;;;;;;5064356;28;20116;-67
2024/02/14 02:51:20;;;;;;;5.47;2.03;;;8.00;99.90;;;;;;5062394;28;20059;-72
2024/02/14 02:53:46;;;;;;;4.75;2.05;;;8.00;99.90;;;;;;5063577;28;20414;-69
2024/02/14 02:56:12;;;;;;;6.18;1.88;;;8.00;99.90;;;;;;5064320;28;20032;-68
2024/02/14 02:58:38;;;;;;;4.75;2.17;;;8.10;99.90;;;;;;5056618;28;20481;-72
2024/02/14 03:01:08;;;;;;;8.75;2.60;;;8.00;99.90;;;;;;5071836;28;20032;-71
2024/02/14 03:03:34;;;;;;;7.28;2.35;;;8.00;99.90;;;;;;5058483;28;20586;-68
2024/02/14 03:06:03;;;;;;;4.65;2.33;;;8.00;99.90;;;;;;5053182;28;20056;-70
2024/02/14 03:08:30;;;;;;;5.22;2.30;;;8.00;99.90;;;;;;5058904;28;20032;-69
2024/02/14 03:10:59;;;;;;;7.00;2.70;;;8.00;99.90;;;;;;5062658;28;20049;-71
2024/02/14 03:13:26;;;;;;;6.85;2.08;;;8.00;99.90;;;;;;5063081;28;20024;-68
2024/02/14 03:15:52;;;;;;;6.13;2.70;;;8.00;99.90;;;;;;5062245;28;20384;-67
2024/02/14 03:18:18;;;;;;;9.30;2.50;;;8.00;99.90;;;;;;5063164;28;20046;-71
2024/02/14 03:20:43;;;;;;;6.13;2.75;;;8.00;99.90;;;;;;5061825;28;20033;-69
2024/02/14 03:23:09;;;;;;;3.80;2.03;;;8.00;99.90;;;;;;5065914;28;20513;-69
2024/02/14 03:25:36;;;;;;;8.82;2.30;;;8.00;99.90;;;;;;5063676;28;20028;-68
2024/02/14 03:28:08;;;;;;;9.40;2.40;;;8.00;99.90;;;;;;5061203;28;20528;-72
2024/02/14 03:30:36;;;;;;;6.88;2.65;;;8.00;99.90;;;;;;5059897;28;20105;-72
2024/02/14 03:33:03;;;;;;;7.28;2.55;;;8.00;99.90;;;;;;5060309;28;20036;-73
2024/02/14 03:35:29;;;;;;;7.25;2.25;;;8.00;99.90;;;;;;5062526;28;20051;-70
2024/02/14 03:37:54;;;;;;;6.03;3.20;;;8.00;99.90;;;;;;5063057;28;20682;-71
2024/02/14 03:40:20;;;;;;;7.60;2.95;;;8.00;99.90;;;;;;5062200;28;20037;-69
2024/02/14 03:42:46;;;;;;;5.45;2.35;;;8.10;99.90;;;;;;5059092;28;20077;-68
2024/02/14 03:45:12;;;;;;;5.38;2.00;;;8.00;99.90;;;;;;5061042;28;20028;-69
2024/02/14 03:47:41;;;;;;;7.85;2.17;;;8.00;99.90;;;;;;5063354;28;20032;-69
2024/02/14 03:50:08;;;;;;;10.15;2.25;;;8.00;99.90;;;;;;5078144;28;20051;-69
2024/02/14 03:52:33;;;;;;;6.63;2.80;;;8.10;99.90;;;;;;5064399;28;20529;-68
2024/02/14 03:55:00;;;;;;;9.93;2.58;;;8.10;99.90;;;;;;5068538;28;20033;-67
2024/02/14 03:57:28;;;;;;;14.15;2.47;;;8.10;99.90;;;;;;5062385;28;20028;-70
2024/02/14 03:59:55;;;;;;;6.03;2.28;;;8.10;99.90;;;;;;5063799;28;20028;-70
2024/02/14 04:02:20;;;;;;;5.85;2.33;;;8.10;99.90;;;;;;5063534;28;20050;-72
2024/02/14 04:04:46;;;;;;;7.43;2.33;;;8.10;99.90;;;;;;5061431;28;20029;-68
2024/02/14 04:07:12;;;;;;;3.85;2.10;;;8.10;99.90;;;;;;5065788;28;20032;-68
2024/02/14 04:09:38;;;;;;;6.10;2.67;;;8.10;99.90;;;;;;5059605;28;20424;-70
2024/02/14 04:12:05;;;;;;;3.15;1.95;;;8.10;99.90;;;;;;5077021;28;20049;-70
2024/02/14 04:14:30;;;;;;;7.45;3.35;;;8.10;99.90;;;;;;5059985;28;20035;-69
2024/02/14 04:16:56;;;;;;;9.80;2.10;;;8.20;99.90;;;;;;5063456;28;20028;-68
2024/02/14 04:19:21;;;;;;;4.13;2.10;;;8.10;99.90;;;;;;5065906;28;20036;-67
2024/02/14 04:21:47;;;;;;;5.15;2.15;;;8.10;99.90;;;;;;5064560;28;20580;-66
2024/02/14 04:24:13;;;;;;;7.05;2.50;;;8.10;99.90;;;;;;5058838;28;20071;-67
2024/02/14 04:26:38;;;;;;;5.22;2.15;;;8.10;99.90;;;;;;5064163;28;20473;-74
2024/02/14 04:29:04;;;;;;;5.82;2.22;;;8.10;99.90;;;;;;5064205;28;20020;-67
2024/02/14 04:31:31;;;;;;;4.28;2.08;;;8.10;99.90;;;;;;5062678;28;20024;-71
2024/02/14 04:33:57;;;;;;;4.03;2.33;;;8.20;99.90;;;;;;5063484;28;20070;-67
2024/02/14 04:36:23;;;;;;;8.25;2.60;;;8.20;99.90;;;;;;5066706;28;20108;-70
2024/02/14 04:38:49;;;;;;;5.40;2.22;;;8.20;99.90;;;;;;5064420;28;20466;-70
2024/02/14 04:41:15;;;;;;;5.18;2.47;;;8.20;99.90;;;;;;5066402;28;20051;-67
2024/02/14 04:43:41;;;;;;;6.65;2.33;;;8.20;99.90;;;;;;5066491;28;20063;-71
2024/02/14 04:46:08;;;;;;;5.85;2.20;;;8.20;99.90;;;;;;5058205;28;20056;-68
2024/02/14 04:48:37;;;;;;;6.10;2.17;;;8.20;99.90;;;;;;5064947;28;20021;-70
2024/02/14 04:51:04;;;;;;;5.25;2.35;;;8.20;99.90;;;;;;5065794;28;20036;-70
2024/02/14 04:53:30;;;;;;;4.60;2.30;;;8.20;99.90;;;;;;5066416;28;20020;-68
2024/02/14 04:55:56;;;;;;;10.30;2.58;;;8.20;99.90;;;;;;5066051;28;20039;-70
2024/02/14 04:58:22;;;;;;;9.27;2.55;;;8.20;99.90;;;;;;5066172;28;20754;-66
2024/02/14 05:00:47;;;;;;;4.50;2.05;;;8.20;99.90;;;;;;5060165;28;20601;-71
2024/02/14 05:03:13;;;;;;;7.00;2.95;;;8.20;99.90;;;;;;5074040;28;20535;-68
2024/02/14 05:05:38;;;;;;;6.53;2.42;;;8.20;99.90;;;;;;5065340;28;20652;-72
2024/02/14 05:08:04;;;;;;;4.75;2.70;;;8.20;99.90;;;;;;5055500;28;20032;-68
2024/02/14 05:10:31;;;;;;;8.23;3.10;;;8.30;99.90;;;;;;5068262;28;20099;-68
2024/02/14 05:12:57;;;;;;;8.15;2.78;;;8.20;99.90;;;;;;5061629;28;20044;-67
2024/02/14 05:15:23;;;;;;;10.60;3.35;;;8.20;99.90;;;;;;5062070;28;20032;-71
2024/02/14 05:17:49;;;;;;;8.50;2.85;;;8.30;99.90;;;;;;5061476;28;20063;-69
2024/02/14 05:20:16;;;;;;;7.75;2.85;;;8.30;99.90;;;;;;5061083;28;20120;-68
2024/02/14 05:22:41;;;;;;;11.75;2.90;;;8.30;99.90;;;;;;5061356;28;20059;-68
2024/02/14 05:25:08;;;;;;;4.65;2.55;;;8.30;99.90;;;;;;5056518;28;20037;-67
2024/02/14 05:27:35;;;;;;;5.13;2.33;;;8.30;99.90;;;;;;5063761;28;20063;-71
2024/02/14 05:30:01;;;;;;;11.98;3.25;;;8.30;99.90;;;;;;5058485;28;20120;-68
2024/02/14 05:32:27;;;;;;;7.07;2.30;;;8.30;99.90;;;;;;5063568;28;20029;-67
2024/02/14 05:34:52;;;;;;;7.30;2.40;;;8.30;99.90;;;;;;5061650;28;20082;-67
2024/02/14 05:37:18;;;;;;;9.00;1.85;;;8.30;99.90;;;;;;5058506;28;20541;-71
2024/02/14 05:39:44;;;;;;;5.07;2.30;;;8.40;99.90;;;;;;5061196;28;20655;-69
2024/02/14 05:42:09;;;;;;;3.60;2.15;;;8.40;99.90;;;;;;5065304;28;20040;-69
2024/02/14 05:44:35;;;;;;;4.80;2.58;;;8.40;99.90;;;;;;5060515;28;20021;-67
2024/02/14 05:47:00;;;;;;;3.30;2.00;;;8.40;99.90;;;;;;5061088;28;20029;-71
2024/02/14 05:49:26;;;;;;;9.85;2.33;;;8.40;99.90;;;;;;5059858;28;20119;-73
2024/02/14 05:51:53;;;;;;;5.45;2.45;;;8.40;99.90;;;;;;5059075;28;20484;-67
2024/02/14 05:54:19;;;;;;;4.53;2.25;;;8.40;99.90;;;;;;5063231;28;20519;-72
2024/02/14 05:56:45;;;;;;;16.25;2.85;;;8.40;99.90;;;;;;5063843;28;20047;-70
2024/02/14 05:59:11;;;;;;;5.65;2.10;;;8.50;99.90;;;;;;5063785;28;20081;-70
2024/02/14 06:01:37;;;;;;;5.70;2.13;;;8.50;99.90;;;;;;5059965;28;20033;-72
2024/02/14 06:04:02;;;;;;;4.25;2.40;;;8.50;99.90;;;;;;5061959;28;20098;-75
2024/02/14 06:06:28;;;;;;;8.27;2.67;;;8.50;99.90;;;;;;5060154;28;20033;-68
2024/02/14 06:08:55;;;;;;;5.15;2.53;;;8.60;99.90;;;;;;5063873;28;20029;-71
2024/02/14 06:11:21;;;;;;;11.52;3.15;;;8.60;99.90;;;;;;5061304;28;20038;-74
2024/02/14 06:13:49;;;;;;;9.10;3.30;;;8.60;99.90;;;;;;5061768;28;20476;-68
2024/02/14 06:16:15;;;;;;;7.30;2.58;;;8.60;99.90;;;;;;5063444;28;20028;-67
2024/02/14 06:18:40;;;;;;;7.43;2.40;;;8.70;99.90;;;;;;5057063;28;20078;-69
2024/02/14 06:21:06;;;;;;;4.10;2.38;;;8.70;99.90;;;;;;5063517;28;20556;-68
2024/02/14 06:23:32;;;;;;;7.32;3.03;;;8.70;99.90;;;;;;5060136;28;20029;-70
2024/02/14 06:25:58;;;;;;;3.53;2.30;;;8.70;99.90;;;;;;5060582;28;20052;-74
2024/02/14 06:28:24;;;;;;;7.43;2.90;;;8.70;99.90;;;;;;5075345;28;20028;-72
2024/02/14 06:30:50;;;;;;;3.97;2.17;;;8.80;99.90;;;;;;5059631;28;20032;-69
2024/02/14 06:33:15;;;;;;;7.15;2.40;;;8.80;99.90;;;;;;5062841;28;20082;-68
2024/02/14 06:35:41;;;;;;;5.53;2.42;;;8.80;99.90;;;;;;5061452;28;20033;-67
2024/02/14 06:38:07;;;;;;;6.22;2.20;;;8.70;99.90;;;;;;5062569;28;20523;-64
2024/02/14 06:40:33;;;;;;;3.35;2.40;;;8.80;99.90;;;;;;5056996;28;20032;-66
2024/02/14 06:42:59;;;;;;;5.57;2.25;;;8.80;99.90;;;;;;5062125;28;20024;-64
2024/02/14 06:45:26;;;;;;;7.30;2.50;;;8.80;99.90;;;;;;5065412;28;20060;-65
2024/02/14 06:47:51;;;;;;;8.73;1.92;;;8.90;99.90;;;;;;5064450;28;20033;-63
2024/02/14 06:50:17;;;;;;;5.00;2.17;;;8.80;99.90;;;;;;5075942;28;20469;-65
2024/02/14 06:52:42;;;;;;;4.70;2.55;;;8.90;99.90;;;;;;5064504;28;20036;-64
2024/02/14 06:55:08;;;;;;;3.53;2.25;;;8.90;99.90;;;;;;5063842;28;20060;-65
2024/02/14 06:57:34;;;;;;;8.20;1.98;;;8.90;99.90;;;;;;5064012;28;20551;-65
2024/02/14 06:59:59;;;;;;;5.90;1.92;;;8.90;99.90;;;;;;5063375;28;20029;-66
2024/02/14 07:02:27;;;;;;;6.45;2.03;;;8.90;99.90;;;;;;5064082;28;20508;-64
2024/02/14 07:04:54;;;;;;;6.22;2.08;;;8.90;99.90;;;;;;5053767;28;20025;-65
2024/02/14 07:07:19;;;;;;;5.93;2.00;;;8.90;99.90;;;;;;5061560;28;20017;-66
2024/02/14 07:09:45;;;;;;;2.53;1.85;;;8.90;99.90;;;;;;5062172;28;20017;-68
2024/02/14 07:12:11;;;;;;;3.72;2.30;;;9.00;99.90;;;;;;5062224;28;20507;-68
2024/02/14 07:14:36;;;;;;;3.70;2.10;;;8.90;99.90;;;;;;5052888;28;20639;-65
2024/02/14 07:17:02;;;;;;;4.50;1.85;;;9.00;99.90;;;;;;5051789;28;20033;-65
2024/02/14 07:19:28;;;;;;;6.30;2.60;;;9.00;99.90;;;;;;5053290;28;20112;-64
2024/02/14 07:21:53;;;;;;;4.93;1.90;;;9.00;99.90;;;;;;5054023;28;20039;-67
2024/02/14 07:24:19;;;;;;;4.38;1.90;;;9.10;99.90;;;;;;5052834;28;20033;-65
2024/02/14 07:26:45;;;;;;;3.33;1.60;;;9.10;99.90;;;;;;5049545;28;20107;-67
2024/02/14 07:29:11;;;;;;;6.28;1.80;;;9.10;99.90;;;;;;5056978;28;20024;-64
2024/02/14 07:31:37;;;;;;;4.68;1.33;;;9.10;99.90;;;;;;5053157;28;20146;-68
2024/02/14 07:34:03;;;;;;;5.55;1.88;;;9.10;99.90;;;;;;5055345;28;20630;-63
2024/02/14 07:36:29;;;;;;;2.90;1.55;;;9.10;99.90;;;;;;5074876;28;20032;-64
2024/02/14 07:38:55;;;;;;;4.72;1.52;;;9.10;99.90;;;;;;5048646;28;20146;-65
2024/02/14 07:41:21;;;;;;;2.40;1.35;;;9.10;99.90;;;;;;5049359;28;20116;-64
2024/02/14 07:43:46;;;;;;;3.30;1.50;;;9.20;99.90;;;;;;5057213;28;20025;-63
2024/02/14 07:46:19;;;;;;;2.13;1.45;;;9.10;99.90;;;;;;5056670;28;20036;-63
2024/02/14 07:48:45;;;;;;;3.55;1.60;;;9.20;99.90;;;;;;5050387;28;20062;-65
2024/02/14 07:51:10;;;;;;;5.20;1.73;;;9.20;99.90;;;;;;5052376;28;20044;-64
2024/02/14 07:53:36;;;;;;;3.47;1.63;;;9.20;99.90;;;;;;5048475;28;20021;-64
2024/02/14 07:56:01;;;;;;;7.60;1.83;;;9.20;99.90;;;;;;5055375;28;20703;-63
2024/02/14 07:58:27;;;;;;;3.20;1.42;;;9.20;99.90;;;;;;5063869;28;20058;-63
2024/02/14 08:00:52;;;;;;;4.65;1.40;;;9.20;99.90;;;;;;5060699;28;20029;-63
2024/02/14 08:03:18;;;;;;;5.00;1.65;;;9.20;99.90;;;;;;5062302;28;20038;-64
2024/02/14 08:05:44;;;;;;;3.78;1.38;;;9.20;99.90;;;;;;5055856;28;20028;-63
2024/02/14 08:08:10;;;;;;;3.20;1.50;;;9.20;99.90;;;;;;5060317;28;20028;-64
2024/02/14 08:10:36;;;;;;;1.90;1.50;;;9.20;99.90;;;;;;5063495;28;20024;-65
2024/02/14 08:13:04;;;;;;;2.10;1.48;;;9.30;99.90;;;;;;5064961;28;20040;-63
2024/02/14 08:15:30;;;;;;;2.70;1.33;;;9.30;99.90;;;;;;5059839;28;20035;-63
2024/02/14 08:17:56;;;;;;;3.72;1.33;;;9.30;99.90;;;;;;5062989;28;20417;-64
2024/02/14 08:20:22;;;;;;;3.63;1.40;;;9.30;99.90;;;;;;5063570;28;20024;-64
2024/02/14 08:22:49;;;;;;;4.35;1.75;;;9.30;99.90;;;;;;5059684;28;20055;-65
2024/02/14 08:25:14;;;;;;;3.38;1.10;;;9.40;99.90;;;;;;5062178;28;20029;-67
2024/02/14 08:27:40;;;;;;;2.65;1.23;;;9.40;99.90;;;;;;5058518;28;20035;-67
2024/02/14 08:30:06;;;;;;;1.27;1.00;;;9.40;99.90;;;;;;5058834;28;20103;-65
2024/02/14 08:32:34;;;;;;;2.25;1.23;;;9.40;99.90;;;;;;5058765;28;20030;-63
2024/02/14 08:34:59;;;;;;;2.03;1.00;;;9.40;99.90;;;;;;5058356;28;20305;-64
2024/02/14 08:37:25;;;;;;;1.95;1.08;;;9.50;99.90;;;;;;5062484;28;20083;-64
2024/02/14 08:39:50;;;;;;;2.05;1.25;;;9.50;99.90;;;;;;5060685;28;20028;-65
2024/02/14 08:42:16;;;;;;;3.35;1.23;;;9.50;99.90;;;;;;5060222;28;20116;-64
2024/02/14 08:44:42;;;;;;;1.77;1.13;;;9.50;99.90;;;;;;5059710;28;20024;-63
2024/02/14 08:47:08;;;;;;;1.05;0.75;;;9.50;99.90;;;;;;5061341;28;20389;-64
2024/02/14 08:49:34;;;;;;;1.20;0.90;;;9.50;99.90;;;;;;5059278;28;20043;-64
2024/02/14 08:52:00;;;;;;;2.30;1.25;;;9.60;99.90;;;;;;5060866;28;20037;-63
2024/02/14 08:54:28;;;;;;;3.95;1.23;;;9.60;99.90;;;;;;5059958;28;20113;-64
2024/02/14 08:56:55;;;;;;;5.05;1.02;;;9.60;99.90;;;;;;5058605;28;20078;-64
2024/02/14 08:59:21;;;;;;;2.30;0.93;;;9.60;99.90;;;;;;5060397;28;20438;-66
2024/02/14 09:01:48;;;;;;;3.80;0.98;;;9.70;99.90;;;;;;5062834;28;20182;-64
2024/02/14 09:04:13;;;;;;;1.75;1.17;;;9.60;99.90;;;;;;5063058;28;20106;-65
2024/02/14 09:06:40;;;;;;;1.77;0.98;;;9.70;99.90;;;;;;5062106;28;20079;-65
2024/02/14 09:09:06;;;;;;;1.02;0.80;;;9.60;99.90;;;;;;5065778;28;20144;-65
2024/02/14 09:11:32;;;;;;;1.67;1.38;;;9.70;99.90;;;;;;5058308;28;20024;-64
2024/02/14 09:14:06;;;;;;;1.58;1.02;;;9.70;99.90;;;;;;5060357;28;20082;-65
2024/02/14 09:16:35;;;;;;;2.45;1.50;;;9.70;99.90;;;;;;5061603;28;20035;-67
2024/02/14 09:19:05;;;;;;;1.52;1.25;;;9.70;99.90;;;;;;5058351;28;20048;-65
2024/02/14 09:21:30;;;;;;;3.67;1.33;;;9.70;99.90;;;;;;5052500;28;20029;-64
2024/02/14 09:23:56;;;;;;;3.10;1.38;;;9.80;99.90;;;;;;5057751;28;20039;-65
2024/02/14 09:26:22;;;;;;;2.92;1.55;;;9.80;99.90;;;;;;5060115;28;20374;-65
2024/02/14 09:28:47;;;;;;;1.95;1.38;;;9.80;99.90;;;;;;5059598;28;20040;-65
2024/02/14 09:31:19;;;;;;;1.95;1.63;;;9.80;99.90;;;;;;5060679;28;20033;-64
2024/02/14 09:33:47;;;;;;;2.38;1.83;;;9.80;99.90;;;;;;5058693;28;20043;-67
2024/02/14 09:36:14;;;;;;;;;;;9.90;99.90;;;;;;5061169;28;20024;-66
2024/02/14 09:38:40;;;;;;;4.43;2.28;;;9.90;99.90;;;;;;5058359;28;19919;-64
2024/02/14 09:41:16;;;;;;;3.17;2.17;;;9.90;99.90;;;;;;5073718;28;20120;-64
2024/02/14 09:43:44;;;;;;;3.95;2.58;;;10.00;99.90;;;;;;5059729;28;20021;-67
2024/02/14 09:46:13;;;;;;;8.55;2.95;;;10.00;99.90;;;;;;5060169;28;20487;-66
2024/02/14 09:48:41;;;;;;;4.57;3.00;;;10.00;99.90;;;;;;5059810;28;20450;-65
2024/02/14 09:51:07;;;;;;;4.80;2.83;;;10.10;99.90;;;;;;5058488;28;20134;-65
2024/02/14 09:53:34;;;;;;;5.15;3.67;;;10.10;99.90;;;;;;5062100;28;20028;-64
2024/02/14 09:56:01;;;;;;;7.05;3.70;;;10.20;99.90;;;;;;5062014;28;20040;-65
2024/02/14 09:58:28;;;;;;;5.78;3.75;;;10.20;99.90;;;;;;5056695;28;20052;-65
2024/02/14 10:00:53;;;;;;;5.63;4.18;;;10.30;99.90;;;;;;5062535;28;20036;-65
2024/02/14 10:03:19;;;;;;;8.27;4.70;;;10.30;99.90;;;;;;5059222;28;20571;-65
2024/02/14 10:05:45;;;;;;;7.45;4.85;;;10.30;99.90;;;;;;5058627;28;20622;-66
2024/02/14 10:08:11;;;;;;;7.63;5.22;;;10.40;99.90;;;;;;5063376;28;20695;-67
2024/02/14 10:10:37;;;;;;;7.60;5.60;;;10.50;99.90;;;;;;5062280;28;20526;-66
2024/02/14 10:13:07;;;;;;;15.77;6.65;;;10.50;99.90;;;;;;5061276;28;20096;-66
2024/02/14 10:15:33;;;;;;;10.23;6.65;;;10.50;99.90;;;;;;5056964;28;20357;-65
2024/02/14 10:17:59;;;;;;;13.63;7.05;;;10.60;99.90;;;;;;5060320;28;20503;-65
2024/02/14 10:20:26;;;;;;;11.40;6.82;;;10.60;99.90;;;;;;5055212;28;20031;-65
2024/02/14 10:23:00;;;;;;;10.95;6.93;;;10.70;99.90;;;;;;5054105;28;20091;-64
2024/02/14 10:25:25;;;;;;;10.95;6.95;;;10.70;99.90;;;;;;5061363;28;20036;-65
2024/02/14 10:27:51;;;;;;;11.05;6.60;;;10.80;99.90;;;;;;5056143;28;20132;-66
2024/02/14 10:30:17;;;;;;;10.00;5.85;;;10.90;99.90;;;;;;5060292;28;20031;-64
2024/02/14 10:32:47;;;;;;;9.90;5.38;;;10.90;99.90;;;;;;5052576;28;20123;-65
2024/02/14 10:35:14;;;;;;;8.32;5.32;;;10.90;99.90;;;;;;5059862;28;20083;-64
2024/02/14 10:37:40;;;;;;;8.82;5.13;;;10.90;99.90;;;;;;5058189;28;20509;-65
2024/02/14 10:40:06;;;;;;;7.97;4.40;;;11.00;99.90;;;;;;5063685;28;20043;-66
2024/02/14 10:42:33;;;;;;;9.23;4.95;;;11.00;99.90;;;;;;5060969;28;20021;-65
2024/02/14 10:45:00;;;;;;;10.48;5.30;;;11.00;99.90;;;;;;5060761;28;20115;-65
2024/02/14 10:47:34;;;;;;;6.63;4.65;;;11.10;99.90;;;;;;5055596;28;20037;-66
2024/02/14 10:50:05;;;;;;;8.77;4.78;;;11.10;99.90;;;;;;5058733;28;20025;-65
2024/02/14 10:52:34;;;;;;;8.93;5.68;;;11.20;99.90;;;;;;5061476;28;20127;-67
2024/02/14 10:55:04;;;;;;;11.55;5.30;;;11.20;99.90;;;;;;5063180;28;20419;-65
2024/02/14 10:57:33;;;;;;;11.40;4.90;;;11.20;99.90;;;;;;5062223;28;20031;-64
2024/02/14 11:00:07;;;;;;;7.53;4.50;;;11.20;99.90;;;;;;5051382;28;20075;-65
2024/02/14 11:02:33;;;;;;;7.50;4.35;;;11.20;99.90;;;;;;5060648;28;20051;-64
2024/02/14 11:05:00;;;;;;;7.22;4.20;;;11.20;99.90;;;;;;5058804;28;20033;-69
2024/02/14 11:07:28;;;;;;;8.52;5.13;;;11.20;99.90;;;;;;5060036;28;20055;-65
2024/02/14 11:10:12;;;;;;;8.45;4.60;;;11.20;99.90;;;;;;5051428;28;20027;-64
2024/02/14 11:12:40;;;;;;;6.32;4.18;;;11.20;99.90;;;;;;5056378;28;20178;-65
2024/02/14 11:15:18;;;;;;;7.75;4.65;;;11.30;99.90;;;;;;5060607;28;20052;-64
2024/02/14 11:17:44;;;;;;;6.45;4.10;;;11.30;99.90;;;;;;5071737;28;20036;-64
2024/02/14 11:20:21;;;;;;;5.88;4.03;;;11.30;99.90;;;;;;5057459;28;20040;-64
2024/02/14 11:22:56;;;;;;;8.43;5.17;;;11.40;99.90;;;;;;5061373;28;20044;-65
2024/02/14 11:25:33;;;;;;;6.63;4.13;;;11.40;99.90;;;;;;5060639;28;20617;-65
2024/02/14 11:28:02;;;;;;;4.03;3.60;;;11.40;99.90;;;;;;5058779;28;20025;-64
2024/02/14 11:30:33;;;;;;;5.45;3.83;;;11.40;99.90;;;;;;5057366;28;20029;-66
2024/02/14 11:33:20;;;;;;;6.93;3.80;;;11.50;99.90;;;;;;5064568;28;20113;-66
2024/02/14 11:35:51;;;;;;;5.00;3.57;;;11.50;99.90;;;;;;5059133;28;20024;-64
2024/02/14 11:38:17;;;;;;;5.75;3.38;;;11.60;99.90;;;;;;5061789;28;20036;-63
2024/02/14 11:40:43;;;;;;;6.60;3.75;;;11.60;99.90;;;;;;5060555;28;20543;-66
2024/02/14 11:43:21;;;;;;;4.57;3.40;;;11.60;99.90;;;;;;5062396;28;20052;-66
2024/02/14 11:45:49;;;;;;;;;;;11.60;99.90;;;;;;5061390;28;20081;-64
2024/02/14 11:48:20;;;;;;;5.15;3.13;;;11.70;99.90;;;;;;5062545;28;19915;-64
2024/02/14 11:50:46;;;;;;;4.78;3.03;;;11.70;99.90;;;;;;5064581;28;20605;-63
2024/02/14 11:53:18;;;;;;;6.28;3.50;;;11.70;99.90;;;;;;5063079;28;20100;-64
2024/02/14 11:55:46;;;;;;;6.88;4.13;;;11.70;99.90;;;;;;5063585;28;20025;-64
2024/02/14 11:58:13;;;;;;;5.05;3.90;;;11.70;99.90;;;;;;5060739;28;20040;-64
2024/02/14 12:00:43;;;;;;;4.88;3.65;;;11.70;99.90;;;;;;5063574;28;20032;-65
2024/02/14 12:03:12;;;;;;;4.32;3.63;;;11.80;99.90;;;;;;5061376;28;20025;-64
2024/02/14 12:05:38;;;;;;;7.03;3.47;;;11.80;99.90;;;;;;5064394;28;20113;-65
2024/02/14 12:08:06;;;;;;;4.95;3.30;;;11.80;99.90;;;;;;5061625;28;20024;-66
2024/02/14 12:10:32;;;;;;;3.90;3.40;;;11.80;99.90;;;;;;5060215;28;20020;-63
2024/02/14 12:12:59;;;;;;;4.57;3.55;;;11.90;99.90;;;;;;5065769;28;20033;-64
2024/02/14 12:15:26;;;;;;;8.27;3.88;;;11.90;99.90;;;;;;5059945;28;20408;-64
2024/02/14 12:17:55;;;;;;;6.23;3.77;;;11.90;99.90;;;;;;5057140;28;20082;-65
2024/02/14 12:20:23;;;;;;;4.75;3.58;;;12.00;99.90;;;;;;5062490;28;20416;-64
2024/02/14 12:22:52;;;;;;;9.88;4.10;;;12.00;99.90;;;;;;5061501;28;20405;-66
2024/02/14 12:25:17;;;;;;;4.80;3.70;;;12.00;99.90;;;;;;5057321;28;20028;-64
2024/02/14 12:27:50;;;;;;;6.00;4.25;;;11.90;99.90;;;;;;5062531;28;20035;-65
2024/02/14 12:30:18;;;;;;;5.50;4.20;;;11.90;99.90;;;;;;5059756;28;20539;-63
2024/02/14 12:32:44;;;;;;;6.20;4.63;;;11.90;99.90;;;;;;5058567;28;20056;-64
2024/02/14 12:35:10;;;;;;;10.68;4.93;;;11.90;99.90;;;;;;5062092;28;20051;-65
2024/02/14 12:37:36;;;;;;;5.93;4.75;;;11.90;99.90;;;;;;5059634;28;20028;-63
2024/02/14 12:40:02;;;;;;;6.93;4.47;;;11.80;99.90;;;;;;5055069;28;20089;-64
2024/02/14 12:42:28;;;;;;;6.40;5.00;;;11.90;99.90;;;;;;5065005;28;20024;-67
2024/02/14 12:44:56;;;;;;;5.45;4.57;;;11.90;99.90;;;;;;5058180;28;20036;-65
2024/02/14 12:47:23;;;;;;;7.82;4.70;;;11.90;99.90;;;;;;5055642;28;20090;-66
2024/02/14 12:49:49;;;;;;;6.35;4.70;;;11.90;99.90;;;;;;5055800;28;20075;-65
2024/02/14 12:52:15;;;;;;;6.18;4.50;;;11.90;99.90;;;;;;5059780;28;20033;-64